createdAt,value
2019-05-26T00:01:13.640Z,14.33
2019-05-26T00:03:41.886Z,10.33
2019-05-26T00:06:10.073Z,9.20
2019-05-26T00:08:41.895Z,14.00
2019-05-26T00:11:12.742Z,10.97
2019-05-26T00:13:40.909Z,13.77
2019-05-26T00:16:09.580Z,9.07
2019-05-26T00:18:38.381Z,9.13
2019-05-26T00:21:06.945Z,9.07
2019-05-26T00:23:35.551Z,8.43
2019-05-26T00:26:04.322Z,8.67
2019-05-26T00:28:35.362Z,8.63
2019-05-26T00:31:04.165Z,8.97
2019-05-26T00:33:32.709Z,10.90
2019-05-26T00:36:03.290Z,7.17
2019-05-26T00:38:31.751Z,8.13
2019-05-26T00:40:59.947Z,9.40
2019-05-26T00:43:27.861Z,10.33
2019-05-26T00:45:57.098Z,9.03
2019-05-26T00:48:24.996Z,8.07
2019-05-26T00:50:54.346Z,9.77
2019-05-26T00:53:22.738Z,11.40
2019-05-26T00:55:50.439Z,8.20
2019-05-26T00:58:18.951Z,9.47
2019-05-26T01:00:47.522Z,9.43
2019-05-26T01:03:16.223Z,9.37
2019-05-26T01:05:44.355Z,7.80
2019-05-26T01:08:12.843Z,8.57
2019-05-26T01:10:41.162Z,10.13
2019-05-26T01:13:12.534Z,10.20
2019-05-26T01:15:40.839Z,12.70
2019-05-26T01:18:08.673Z,10.00
2019-05-26T01:20:36.178Z,11.30
2019-05-26T01:23:04.484Z,10.63
2019-05-26T01:25:32.795Z,9.97
2019-05-26T01:28:00.620Z,10.20
2019-05-26T01:30:35.809Z,10.67
2019-05-26T01:33:04.494Z,11.50
2019-05-26T01:35:33.105Z,12.37
2019-05-26T01:38:01.384Z,9.80
2019-05-26T01:40:39.779Z,10.13
2019-05-26T01:43:08.287Z,10.40
2019-05-26T01:45:36.452Z,11.37
2019-05-26T01:48:05.178Z,12.57
2019-05-26T01:50:33.340Z,10.53
2019-05-26T01:53:01.189Z,9.40
2019-05-26T01:55:28.672Z,12.17
2019-05-26T01:57:56.943Z,9.90
2019-05-26T02:00:25.529Z,15.40
2019-05-26T02:02:53.727Z,10.57
2019-05-26T02:05:22.199Z,9.20
2019-05-26T02:07:52.026Z,10.97
2019-05-26T02:10:20.543Z,11.73
2019-05-26T02:12:48.544Z,13.47
2019-05-26T02:15:17.310Z,10.03
2019-05-26T02:17:46.957Z,14.13
2019-05-26T02:20:14.985Z,15.33
2019-05-26T02:22:42.857Z,9.90
2019-05-26T02:25:11.373Z,9.47
2019-05-26T02:27:39.913Z,14.17
2019-05-26T02:30:08.327Z,11.00
2019-05-26T02:32:38.709Z,14.63
2019-05-26T02:35:06.998Z,13.60
2019-05-26T02:37:35.252Z,11.37
2019-05-26T02:40:02.864Z,11.57
2019-05-26T02:42:31.065Z,12.10
2019-05-26T02:44:59.523Z,10.33
2019-05-26T02:47:28.334Z,10.07
2019-05-26T02:49:57.030Z,9.50
2019-05-26T02:52:27.037Z,9.30
2019-05-26T02:54:55.204Z,9.77
2019-05-26T02:57:23.710Z,9.17
2019-05-26T02:59:51.932Z,9.70
2019-05-26T03:02:21.410Z,9.73
2019-05-26T03:04:49.988Z,10.27
2019-05-26T03:07:18.669Z,12.13
2019-05-26T03:09:47.820Z,11.73
2019-05-26T03:12:18.324Z,11.07
2019-05-26T03:14:47.616Z,12.07
2019-05-26T03:17:17.032Z,9.60
2019-05-26T03:19:46.259Z,11.57
2019-05-26T03:22:16.716Z,10.57
2019-05-26T03:24:46.873Z,9.70
2019-05-26T03:27:15.389Z,11.20
2019-05-26T03:29:46.248Z,11.20
2019-05-26T03:32:16.636Z,10.00
2019-05-26T03:34:44.896Z,8.57
2019-05-26T03:37:12.799Z,9.23
2019-05-26T03:39:46.170Z,8.93
2019-05-26T03:42:14.054Z,8.13
2019-05-26T03:44:42.215Z,8.53
2019-05-26T03:47:09.723Z,7.90
2019-05-26T03:49:39.109Z,8.27
2019-05-26T03:52:07.316Z,7.80
2019-05-26T03:54:35.670Z,8.93
2019-05-26T03:57:05.893Z,10.90
2019-05-26T03:59:34.804Z,9.70
2019-05-26T04:02:03.304Z,8.20
2019-05-26T04:04:31.523Z,8.63
2019-05-26T04:06:59.741Z,10.27
2019-05-26T04:09:28.460Z,8.50
2019-05-26T04:11:59.434Z,10.80
2019-05-26T04:14:27.912Z,8.57
2019-05-26T04:16:58.520Z,9.97
2019-05-26T04:19:29.050Z,6.97
2019-05-26T04:21:56.980Z,7.07
2019-05-26T04:24:25.209Z,7.10
2019-05-26T04:26:53.580Z,7.40
2019-05-26T04:29:22.268Z,7.33
2019-05-26T04:31:50.490Z,7.90
2019-05-26T04:34:19.049Z,6.63
2019-05-26T04:36:46.940Z,8.97
2019-05-26T04:39:17.598Z,7.80
2019-05-26T04:41:46.235Z,7.47
2019-05-26T04:44:17.368Z,7.97
2019-05-26T04:46:46.272Z,10.33
2019-05-26T04:49:14.878Z,9.00
2019-05-26T04:51:43.180Z,9.90
2019-05-26T04:54:11.475Z,10.47
2019-05-26T04:56:39.700Z,14.37
2019-05-26T04:59:08.311Z,11.73
2019-05-26T05:01:39.045Z,10.97
2019-05-26T05:04:07.643Z,21.87
2019-05-26T05:06:35.565Z,15.80
2019-05-26T05:09:06.435Z,9.73
2019-05-26T05:11:34.895Z,10.30
2019-05-26T05:14:03.220Z,13.10
2019-05-26T05:16:31.381Z,13.67
2019-05-26T05:18:59.990Z,13.73
2019-05-26T05:21:28.363Z,13.17
2019-05-26T05:23:56.646Z,11.40
2019-05-26T05:26:24.608Z,10.83
2019-05-26T05:28:52.670Z,10.80
2019-05-26T05:31:21.293Z,10.97
2019-05-26T05:33:49.815Z,13.07
2019-05-26T05:36:18.325Z,12.57
2019-05-26T05:38:46.956Z,11.30
2019-05-26T05:41:14.981Z,12.10
2019-05-26T05:43:43.878Z,12.83
2019-05-26T05:46:12.525Z,13.57
2019-05-26T05:48:40.625Z,14.10
2019-05-26T05:51:09.123Z,13.00
2019-05-26T05:53:37.464Z,15.07
2019-05-26T05:56:05.259Z,14.53
2019-05-26T05:58:33.429Z,16.63
2019-05-26T06:01:01.599Z,16.50
2019-05-26T06:03:29.878Z,18.23
2019-05-26T06:05:58.150Z,18.47
2019-05-26T06:08:28.128Z,18.77
2019-05-26T06:10:56.678Z,17.47
2019-05-26T06:13:25.362Z,18.47
2019-05-26T06:15:53.333Z,17.20
2019-05-26T06:18:21.542Z,17.00
2019-05-26T06:20:49.783Z,25.83
2019-05-26T06:23:17.932Z,29.57
2019-05-26T06:25:46.556Z,25.20
2019-05-26T06:28:15.096Z,28.67
2019-05-26T06:30:43.554Z,24.50
2019-05-26T06:33:11.409Z,26.80
2019-05-26T06:35:40.002Z,24.67
2019-05-26T06:38:08.309Z,28.37
2019-05-26T06:40:36.288Z,29.23
2019-05-26T06:43:04.853Z,23.47
2019-05-26T06:45:33.143Z,26.07
2019-05-26T06:48:01.740Z,23.57
2019-05-26T06:50:29.600Z,27.60
2019-05-26T06:52:56.834Z,27.60
2019-05-26T06:55:25.139Z,33.53
2019-05-26T06:57:53.415Z,30.50
2019-05-26T07:00:21.629Z,26.97
2019-05-26T07:02:49.444Z,23.90
2019-05-26T07:05:18.555Z,26.30
2019-05-26T07:07:47.016Z,26.03
2019-05-26T07:10:16.044Z,23.10
2019-05-26T07:12:44.093Z,22.07
2019-05-26T07:15:12.932Z,21.70
2019-05-26T07:17:42.533Z,20.23
2019-05-26T07:20:11.079Z,19.70
2019-05-26T07:22:39.504Z,19.87
2019-05-26T07:25:11.080Z,17.17
2019-05-26T07:27:39.366Z,18.80
2019-05-26T07:30:11.853Z,18.10
2019-05-26T07:32:40.362Z,13.87
2019-05-26T07:35:08.558Z,15.00
2019-05-26T07:37:39.580Z,16.63
2019-05-26T07:40:08.063Z,15.60
2019-05-26T07:42:36.712Z,15.23
2019-05-26T07:45:05.500Z,16.13
2019-05-26T07:47:33.685Z,14.40
2019-05-26T07:50:02.062Z,16.10
2019-05-26T07:52:30.150Z,14.27
2019-05-26T07:54:58.350Z,17.87
2019-05-26T07:57:26.868Z,17.47
2019-05-26T07:59:55.107Z,20.53
2019-05-26T08:02:23.605Z,17.60
2019-05-26T08:04:51.846Z,17.77
2019-05-26T08:07:23.028Z,16.13
2019-05-26T08:09:50.281Z,19.03
2019-05-26T08:12:27.053Z,17.57
2019-05-26T08:14:49.725Z,16.47
2019-05-26T08:17:20.774Z,15.67
2019-05-26T08:19:50.715Z,19.37
2019-05-26T08:22:18.816Z,17.30
2019-05-26T08:24:47.466Z,15.27
2019-05-26T08:27:17.311Z,18.37
2019-05-26T08:29:47.304Z,13.87
2019-05-26T08:32:15.469Z,14.67
2019-05-26T08:34:44.047Z,17.30
2019-05-26T08:37:12.639Z,14.83
2019-05-26T08:39:42.815Z,16.73
2019-05-26T08:42:24.597Z,15.60
2019-05-26T08:44:41.681Z,15.07
2019-05-26T08:47:09.956Z,14.63
2019-05-26T08:49:39.778Z,14.30
2019-05-26T08:52:08.275Z,15.00
2019-05-26T08:54:39.374Z,17.83
2019-05-26T08:57:07.924Z,14.20
2019-05-26T08:59:36.330Z,14.90
2019-05-26T09:02:05.766Z,12.60
2019-05-26T09:04:35.936Z,13.73
2019-05-26T09:07:06.155Z,16.27
2019-05-26T09:09:34.411Z,13.17
2019-05-26T09:12:04.483Z,12.10
2019-05-26T09:14:32.958Z,15.53
2019-05-26T09:17:03.199Z,13.20
2019-05-26T09:19:31.851Z,15.23
2019-05-26T09:22:00.057Z,13.10
2019-05-26T09:24:28.654Z,11.87
2019-05-26T09:26:57.033Z,15.47
2019-05-26T09:29:25.213Z,13.17
2019-05-26T09:31:53.168Z,12.40
2019-05-26T09:34:21.168Z,10.20
2019-05-26T09:36:49.013Z,11.03
2019-05-26T09:39:17.777Z,10.73
2019-05-26T09:41:46.018Z,13.07
2019-05-26T09:44:13.860Z,13.13
2019-05-26T09:46:44.540Z,15.07
2019-05-26T09:49:12.791Z,12.17
2019-05-26T09:51:41.056Z,10.50
2019-05-26T09:54:12.803Z,17.03
2019-05-26T09:56:40.174Z,12.53
2019-05-26T09:59:08.351Z,11.50
2019-05-26T10:01:35.918Z,8.93
2019-05-26T10:04:04.641Z,12.90
2019-05-26T10:06:33.215Z,9.47
2019-05-26T10:09:01.810Z,10.27
2019-05-26T10:11:31.271Z,8.67
2019-05-26T10:13:59.743Z,8.83
2019-05-26T10:16:30.451Z,10.03
2019-05-26T10:18:57.988Z,10.87
2019-05-26T10:21:26.585Z,8.93
2019-05-26T10:23:54.832Z,9.07
2019-05-26T10:26:26.271Z,7.57
2019-05-26T10:28:54.135Z,5.97
2019-05-26T10:31:22.675Z,8.10
2019-05-26T10:33:51.830Z,7.70
2019-05-26T10:36:22.840Z,9.00
2019-05-26T10:38:51.507Z,7.67
2019-05-26T10:41:19.700Z,5.63
2019-05-26T10:43:48.005Z,7.93
2019-05-26T10:46:18.306Z,7.00
2019-05-26T10:48:46.891Z,7.97
2019-05-26T10:51:15.480Z,7.07
2019-05-26T10:53:44.115Z,7.47
2019-05-26T10:56:11.421Z,7.47
2019-05-26T10:58:42.466Z,6.97
2019-05-26T11:01:13.037Z,7.10
2019-05-26T11:03:43.215Z,8.70
2019-05-26T11:06:10.690Z,8.23
2019-05-26T11:08:39.297Z,6.27
2019-05-26T11:11:07.674Z,9.43
2019-05-26T11:13:41.001Z,7.57
2019-05-26T11:16:08.841Z,5.83
2019-05-26T11:18:37.429Z,5.77
2019-05-26T11:21:05.699Z,9.10
2019-05-26T11:23:33.897Z,5.93
2019-05-26T11:26:02.471Z,7.23
2019-05-26T11:28:32.349Z,6.90
2019-05-26T11:31:00.265Z,6.33
2019-05-26T11:33:28.850Z,5.03
2019-05-26T11:35:59.036Z,6.10
2019-05-26T11:38:27.781Z,5.53
2019-05-26T11:40:58.362Z,6.90
2019-05-26T11:43:26.594Z,6.73
2019-05-26T11:45:54.911Z,6.97
2019-05-26T11:48:22.711Z,5.47
2019-05-26T11:50:53.682Z,6.43
2019-05-26T11:53:22.202Z,6.23
2019-05-26T11:55:50.470Z,5.80
2019-05-26T11:58:19.092Z,6.87
2019-05-26T12:00:47.639Z,5.30
2019-05-26T12:03:15.833Z,5.37
2019-05-26T12:05:44.179Z,5.37
2019-05-26T12:08:12.473Z,6.13
2019-05-26T12:10:41.255Z,5.50
2019-05-26T12:13:11.991Z,5.43
2019-05-26T12:15:40.281Z,4.70
2019-05-26T12:18:08.320Z,4.97
2019-05-26T12:20:38.917Z,5.80
2019-05-26T12:23:08.018Z,5.83
2019-05-26T12:25:38.505Z,7.03
2019-05-26T12:28:07.665Z,6.30
2019-05-26T12:30:37.697Z,6.43
2019-05-26T12:33:07.857Z,5.40
2019-05-26T12:35:46.677Z,5.27
2019-05-26T12:38:15.104Z,4.90
2019-05-26T12:40:43.316Z,4.30
2019-05-26T12:43:11.380Z,6.10
2019-05-26T12:45:39.750Z,4.30
2019-05-26T12:48:08.112Z,4.80
2019-05-26T12:50:36.031Z,5.70
2019-05-26T12:53:04.456Z,3.47
2019-05-26T12:55:32.667Z,4.17
2019-05-26T12:58:01.011Z,5.77
2019-05-26T13:00:45.273Z,4.87
2019-05-26T13:02:59.655Z,3.70
2019-05-26T13:05:27.702Z,6.93
2019-05-26T13:07:56.331Z,4.10
2019-05-26T13:10:24.426Z,3.57
2019-05-26T13:12:52.595Z,4.30
2019-05-26T13:15:20.974Z,5.03
2019-05-26T13:17:49.590Z,6.10
2019-05-26T13:20:17.867Z,3.80
2019-05-26T13:22:46.121Z,6.57
2019-05-26T13:25:16.248Z,5.83
2019-05-26T13:27:44.140Z,4.60
2019-05-26T13:30:14.967Z,3.50
2019-05-26T13:32:43.161Z,3.70
2019-05-26T13:35:11.722Z,5.07
2019-05-26T13:37:40.316Z,3.43
2019-05-26T13:40:09.344Z,4.77
2019-05-26T13:42:37.245Z,3.63
2019-05-26T13:45:21.014Z,3.53
2019-05-26T13:47:36.376Z,3.60
2019-05-26T13:50:05.678Z,2.90
2019-05-26T13:52:34.213Z,4.47
2019-05-26T13:55:04.786Z,3.20
2019-05-26T13:57:33.025Z,3.37
2019-05-26T14:00:03.373Z,3.60
2019-05-26T14:02:31.949Z,4.30
2019-05-26T14:05:00.525Z,2.47
2019-05-26T14:07:29.152Z,3.10
2019-05-26T14:09:57.898Z,2.97
2019-05-26T14:12:26.494Z,2.50
2019-05-26T14:14:56.409Z,2.33
2019-05-26T14:17:33.481Z,2.90
2019-05-26T14:20:03.934Z,3.40
2019-05-26T14:22:33.785Z,3.07
2019-05-26T14:25:01.955Z,3.60
2019-05-26T14:27:30.305Z,2.30
2019-05-26T14:29:58.611Z,2.47
2019-05-26T14:32:26.966Z,2.20
2019-05-26T14:34:55.004Z,2.80
2019-05-26T14:37:23.654Z,3.93
2019-05-26T14:39:52.241Z,4.13
2019-05-26T14:42:20.823Z,5.47
2019-05-26T14:44:49.406Z,2.67
2019-05-26T14:47:17.817Z,3.57
2019-05-26T14:49:46.109Z,2.67
2019-05-26T14:52:14.323Z,2.50
2019-05-26T14:54:43.066Z,3.23
2019-05-26T14:57:11.608Z,2.70
2019-05-26T14:59:40.246Z,2.50
2019-05-26T15:02:11.491Z,4.17
2019-05-26T15:04:39.637Z,3.00
2019-05-26T15:07:08.056Z,2.40
2019-05-26T15:09:37.644Z,4.63
2019-05-26T15:12:06.139Z,6.60
2019-05-26T15:14:34.917Z,2.53
2019-05-26T15:17:03.741Z,2.72
2019-05-26T15:19:31.702Z,28.15
2019-05-26T15:22:00.203Z,33.33
2019-05-26T15:24:28.515Z,13.17
2019-05-26T15:26:56.344Z,3.30
2019-05-26T15:29:25.004Z,3.57
2019-05-26T15:31:53.525Z,7.70
2019-05-26T15:34:22.127Z,12.77
2019-05-26T15:36:50.797Z,15.40
2019-05-26T15:39:19.206Z,12.90
2019-05-26T15:41:47.390Z,21.67
2019-05-26T15:44:15.723Z,10.10
2019-05-26T15:46:43.946Z,4.43
2019-05-26T15:49:12.643Z,3.57
2019-05-26T15:51:41.316Z,3.03
2019-05-26T15:54:09.271Z,2.77
2019-05-26T15:56:37.446Z,2.60
2019-05-26T15:59:06.057Z,2.50
2019-05-26T16:01:34.296Z,2.73
2019-05-26T16:04:04.452Z,2.77
2019-05-26T16:06:32.345Z,2.40
2019-05-26T16:09:00.942Z,2.50
2019-05-26T16:11:29.326Z,3.50
2019-05-26T16:13:57.575Z,3.00
2019-05-26T16:16:40.106Z,2.30
2019-05-26T16:18:56.807Z,3.67
2019-05-26T16:21:28.314Z,3.70
2019-05-26T16:23:55.852Z,3.90
2019-05-26T16:26:24.335Z,6.97
2019-05-26T16:28:52.844Z,2.77
2019-05-26T16:31:20.799Z,3.37
2019-05-26T16:33:48.971Z,2.50
2019-05-26T16:36:21.080Z,2.53
2019-05-26T16:38:48.298Z,2.40
2019-05-26T16:41:16.896Z,2.80
2019-05-26T16:43:45.194Z,3.67
2019-05-26T16:46:13.444Z,3.40
2019-05-26T16:48:41.732Z,3.93
2019-05-26T16:51:10.018Z,4.30
2019-05-26T16:53:38.112Z,2.10
2019-05-26T16:56:06.751Z,1.60
2019-05-26T16:58:34.675Z,2.70
2019-05-26T17:01:03.245Z,2.43
2019-05-26T17:03:31.126Z,2.57
2019-05-26T17:06:07.636Z,3.03
2019-05-26T17:08:28.820Z,2.13
2019-05-26T17:10:57.376Z,2.90
2019-05-26T17:13:25.223Z,2.47
2019-05-26T17:15:53.457Z,2.20
2019-05-26T17:18:21.842Z,2.93
2019-05-26T17:20:50.285Z,1.70
2019-05-26T17:23:18.882Z,2.80
2019-05-26T17:25:46.496Z,2.50
2019-05-26T17:28:14.347Z,2.77
2019-05-26T17:30:42.574Z,2.70
2019-05-26T17:33:10.812Z,2.37
2019-05-26T17:35:39.009Z,4.33
2019-05-26T17:38:07.395Z,8.10
2019-05-26T17:40:36.155Z,7.13
2019-05-26T17:43:04.776Z,7.57
2019-05-26T17:45:33.143Z,4.53
2019-05-26T17:48:01.411Z,3.80
2019-05-26T17:50:30.033Z,3.50
2019-05-26T17:52:59.383Z,3.90
2019-05-26T17:55:28.101Z,2.93
2019-05-26T17:57:56.316Z,2.67
2019-05-26T18:00:24.073Z,3.07
2019-05-26T18:02:52.359Z,2.20
2019-05-26T18:05:20.939Z,2.73
2019-05-26T18:07:49.564Z,4.90
2019-05-26T18:10:17.969Z,3.07
2019-05-26T18:12:46.280Z,2.40
2019-05-26T18:15:14.777Z,2.53
2019-05-26T18:17:47.493Z,4.00
2019-05-26T18:20:13.050Z,4.27
2019-05-26T18:22:41.338Z,4.70
2019-05-26T18:25:10.027Z,3.40
2019-05-26T18:27:38.841Z,5.70
2019-05-26T18:30:08.629Z,5.70
2019-05-26T18:32:37.018Z,6.37
2019-05-26T18:35:04.987Z,3.87
2019-05-26T18:37:33.215Z,4.03
2019-05-26T18:40:01.985Z,3.67
2019-05-26T18:42:30.250Z,5.07
2019-05-26T18:44:59.027Z,4.60
2019-05-26T18:47:26.847Z,4.80
2019-05-26T18:49:55.227Z,5.07
2019-05-26T18:52:23.492Z,4.20
2019-05-26T18:54:51.203Z,3.90
2019-05-26T18:57:19.713Z,4.20
2019-05-26T18:59:48.455Z,3.87
2019-05-26T19:02:17.263Z,4.13
2019-05-26T19:04:45.636Z,5.60
2019-05-26T19:07:14.236Z,4.10
2019-05-26T19:09:41.517Z,3.70
2019-05-26T19:12:10.308Z,4.37
2019-05-26T19:14:38.207Z,4.30
2019-05-26T19:17:08.291Z,4.00
2019-05-26T19:19:36.773Z,4.37
2019-05-26T19:22:05.436Z,5.90
2019-05-26T19:24:33.536Z,4.33
2019-05-26T19:27:01.326Z,4.70
2019-05-26T19:29:30.057Z,4.30
2019-05-26T19:31:57.936Z,4.60
2019-05-26T19:34:26.572Z,4.23
2019-05-26T19:36:55.216Z,4.50
2019-05-26T19:39:23.435Z,4.23
2019-05-26T19:41:51.523Z,4.90
2019-05-26T19:44:19.382Z,4.10
2019-05-26T19:46:47.953Z,4.17
2019-05-26T19:49:16.245Z,5.33
2019-05-26T19:51:44.510Z,3.60
2019-05-26T19:54:12.477Z,3.70
2019-05-26T19:56:41.165Z,4.30
2019-05-26T19:59:09.342Z,4.53
2019-05-26T20:01:37.237Z,4.27
2019-05-26T20:04:05.641Z,4.80
2019-05-26T20:06:34.838Z,4.73
2019-05-26T20:09:04.486Z,5.73
2019-05-26T20:11:33.246Z,4.23
2019-05-26T20:14:01.863Z,5.70
2019-05-26T20:16:31.031Z,4.83
2019-05-26T20:18:59.443Z,6.27
2019-05-26T20:21:28.061Z,4.13
2019-05-26T20:23:55.846Z,4.40
2019-05-26T20:26:24.509Z,4.33
2019-05-26T20:28:52.607Z,5.40
2019-05-26T20:31:20.624Z,5.20
2019-05-26T20:33:48.584Z,6.23
2019-05-26T20:36:17.974Z,8.50
2019-05-26T20:38:46.530Z,6.40
2019-05-26T20:41:15.792Z,5.57
2019-05-26T20:43:44.078Z,7.93
2019-05-26T20:46:14.086Z,5.13
2019-05-26T20:48:42.635Z,4.87
2019-05-26T20:51:14.168Z,5.43
2019-05-26T20:53:42.427Z,4.10
2019-05-26T20:56:13.162Z,4.00
2019-05-26T20:58:41.375Z,4.23
2019-05-26T21:01:09.732Z,4.63
2019-05-26T21:03:38.007Z,5.13
2019-05-26T21:06:06.198Z,4.47
2019-05-26T21:08:34.442Z,4.40
2019-05-26T21:11:02.829Z,4.47
2019-05-26T21:13:32.941Z,5.03
2019-05-26T21:16:01.167Z,5.63
2019-05-26T21:18:29.146Z,4.83
2019-05-26T21:20:57.002Z,4.30
2019-05-26T21:23:24.841Z,4.87
2019-05-26T21:25:53.378Z,4.80
2019-05-26T21:28:24.016Z,5.07
2019-05-26T21:30:52.509Z,5.13
2019-05-26T21:33:20.852Z,4.53
2019-05-26T21:35:49.371Z,5.33
2019-05-26T21:38:18.905Z,4.37
2019-05-26T21:40:46.515Z,4.80
2019-05-26T21:43:14.771Z,4.63
2019-05-26T21:45:44.363Z,4.90
2019-05-26T21:48:13.121Z,5.93
2019-05-26T21:50:41.876Z,5.90
2019-05-26T21:53:10.103Z,5.43
2019-05-26T21:55:37.783Z,5.27
2019-05-26T21:58:06.382Z,5.80
2019-05-26T22:00:40.021Z,5.40
2019-05-26T22:03:08.260Z,5.30
2019-05-26T22:05:37.431Z,5.63
2019-05-26T22:08:05.934Z,6.83
2019-05-26T22:10:35.579Z,5.07
2019-05-26T22:13:04.357Z,5.57
2019-05-26T22:15:33.881Z,6.00
2019-05-26T22:18:03.072Z,6.07
2019-05-26T22:20:31.935Z,5.57
2019-05-26T22:23:00.453Z,6.83
2019-05-26T22:25:29.051Z,5.20
2019-05-26T22:27:58.182Z,5.87
2019-05-26T22:30:27.947Z,6.53
2019-05-26T22:32:56.969Z,6.50
2019-05-26T22:35:24.862Z,5.73
2019-05-26T22:37:52.836Z,5.97
2019-05-26T22:40:22.419Z,6.20
2019-05-26T22:42:50.321Z,6.33
2019-05-26T22:45:18.286Z,6.10
2019-05-26T22:47:46.591Z,6.17
2019-05-26T22:50:15.322Z,7.27
2019-05-26T22:52:44.017Z,5.73
2019-05-26T22:55:11.690Z,6.80
2019-05-26T22:57:39.877Z,11.83
2019-05-26T23:00:09.397Z,15.73
2019-05-26T23:02:37.593Z,12.03
2019-05-26T23:05:06.403Z,7.60
2019-05-26T23:07:35.034Z,6.60
2019-05-26T23:10:03.848Z,7.30
2019-05-26T23:12:31.652Z,7.70
2019-05-26T23:14:59.427Z,9.90
2019-05-26T23:17:27.894Z,6.93
2019-05-26T23:19:56.042Z,6.00
2019-05-26T23:22:24.340Z,6.10
2019-05-26T23:24:52.839Z,5.73
2019-05-26T23:27:20.872Z,5.77
2019-05-26T23:29:48.754Z,7.07
2019-05-26T23:32:17.055Z,6.27
2019-05-26T23:34:45.635Z,5.27
2019-05-26T23:37:14.323Z,5.70
2019-05-26T23:39:42.777Z,7.77
2019-05-26T23:42:10.726Z,5.70
2019-05-26T23:44:38.753Z,7.00
2019-05-26T23:47:07.052Z,6.77
2019-05-26T23:49:35.622Z,7.37
2019-05-26T23:52:04.353Z,6.07
2019-05-26T23:54:32.638Z,6.60
2019-05-26T23:57:00.877Z,6.97
2019-05-26T23:59:29.475Z,6.70
